sensor_id;sensor_type;location;lat;lon;timestamp;P1;durP1;ratioP1;P2;durP2;ratioP2
68089;SDS011;54880;50.986;6.990;2023-04-01T00:00:46;7.43;;;1.40;;
68089;SDS011;54880;50.986;6.990;2023-04-01T00:03:11;5.40;;;0.90;;
68089;SDS011;54880;50.986;6.990;2023-04-01T00:05:36;5.45;;;1.05;;
68089;SDS011;54880;50.986;6.990;2023-04-01T00:08:02;2.67;;;0.80;;
68089;SDS011;54880;50.986;6.990;2023-04-01T00:10:27;4.40;;;0.73;;
68089;SDS011;54880;50.986;6.990;2023-04-01T00:12:52;5.20;;;0.80;;
68089;SDS011;54880;50.986;6.990;2023-04-01T00:15:18;5.40;;;0.80;;
68089;SDS011;54880;50.986;6.990;2023-04-01T00:17:43;3.38;;;0.70;;
68089;SDS011;54880;50.986;6.990;2023-04-01T00:20:09;4.38;;;0.82;;
68089;SDS011;54880;50.986;6.990;2023-04-01T00:22:35;5.07;;;1.10;;
68089;SDS011;54880;50.986;6.990;2023-04-01T00:25:00;4.10;;;0.80;;
68089;SDS011;54880;50.986;6.990;2023-04-01T00:27:26;6.57;;;0.80;;
68089;SDS011;54880;50.986;6.990;2023-04-01T00:29:51;4.30;;;0.97;;
68089;SDS011;54880;50.986;6.990;2023-04-01T00:32:16;6.30;;;0.80;;
68089;SDS011;54880;50.986;6.990;2023-04-01T00:34:42;4.20;;;0.80;;
68089;SDS011;54880;50.986;6.990;2023-04-01T00:37:09;6.80;;;0.73;;
68089;SDS011;54880;50.986;6.990;2023-04-01T00:39:34;2.80;;;0.60;;
68089;SDS011;54880;50.986;6.990;2023-04-01T00:42:00;3.90;;;0.80;;
68089;SDS011;54880;50.986;6.990;2023-04-01T00:44:27;4.10;;;0.70;;
68089;SDS011;54880;50.986;6.990;2023-04-01T00:46:53;3.70;;;0.60;;
68089;SDS011;54880;50.986;6.990;2023-04-01T00:49:19;3.88;;;0.60;;
68089;SDS011;54880;50.986;6.990;2023-04-01T00:51:46;5.78;;;0.60;;
68089;SDS011;54880;50.986;6.990;2023-04-01T00:54:13;4.35;;;0.70;;
68089;SDS011;54880;50.986;6.990;2023-04-01T00:56:40;4.13;;;0.70;;
68089;SDS011;54880;50.986;6.990;2023-04-01T00:59:14;2.90;;;0.70;;
68089;SDS011;54880;50.986;6.990;2023-04-01T01:01:41;4.30;;;0.70;;
68089;SDS011;54880;50.986;6.990;2023-04-01T01:04:06;4.25;;;0.75;;
68089;SDS011;54880;50.986;6.990;2023-04-01T01:09:37;3.83;;;0.70;;
68089;SDS011;54880;50.986;6.990;2023-04-01T01:14:42;2.47;;;0.57;;
68089;SDS011;54880;50.986;6.990;2023-04-01T01:17:13;3.85;;;0.77;;
68089;SDS011;54880;50.986;6.990;2023-04-01T01:19:45;3.25;;;0.70;;
68089;SDS011;54880;50.986;6.990;2023-04-01T01:32:07;3.60;;;0.67;;
68089;SDS011;54880;50.986;6.990;2023-04-01T01:37:13;3.00;;;0.63;;
68089;SDS011;54880;50.986;6.990;2023-04-01T01:39:39;2.63;;;0.63;;
68089;SDS011;54880;50.986;6.990;2023-04-01T01:42:07;3.47;;;0.60;;
68089;SDS011;54880;50.986;6.990;2023-04-01T01:44:35;3.42;;;0.70;;
68089;SDS011;54880;50.986;6.990;2023-04-01T01:47:01;2.70;;;0.60;;
68089;SDS011;54880;50.986;6.990;2023-04-01T01:49:27;3.87;;;0.70;;
68089;SDS011;54880;50.986;6.990;2023-04-01T01:51:55;2.80;;;0.60;;
68089;SDS011;54880;50.986;6.990;2023-04-01T01:54:22;5.63;;;0.80;;
68089;SDS011;54880;50.986;6.990;2023-04-01T01:56:48;2.77;;;0.70;;
68089;SDS011;54880;50.986;6.990;2023-04-01T01:59:15;4.82;;;0.80;;
68089;SDS011;54880;50.986;6.990;2023-04-01T02:01:42;3.20;;;0.70;;
68089;SDS011;54880;50.986;6.990;2023-04-01T02:04:12;6.07;;;0.75;;
68089;SDS011;54880;50.986;6.990;2023-04-01T02:06:39;3.83;;;0.60;;
68089;SDS011;54880;50.986;6.990;2023-04-01T02:09:07;2.83;;;0.50;;
68089;SDS011;54880;50.986;6.990;2023-04-01T02:16:31;2.90;;;0.70;;
68089;SDS011;54880;50.986;6.990;2023-04-01T02:18:59;2.47;;;0.60;;
68089;SDS011;54880;50.986;6.990;2023-04-01T02:21:26;2.70;;;0.70;;
68089;SDS011;54880;50.986;6.990;2023-04-01T02:23:53;2.25;;;0.50;;
68089;SDS011;54880;50.986;6.990;2023-04-01T02:26:18;1.83;;;0.40;;
68089;SDS011;54880;50.986;6.990;2023-04-01T02:28:44;2.20;;;0.45;;
68089;SDS011;54880;50.986;6.990;2023-04-01T02:31:11;3.10;;;0.70;;
68089;SDS011;54880;50.986;6.990;2023-04-01T02:33:38;5.45;;;0.68;;
68089;SDS011;54880;50.986;6.990;2023-04-01T02:36:04;3.25;;;0.60;;
68089;SDS011;54880;50.986;6.990;2023-04-01T02:38:30;3.42;;;0.50;;
68089;SDS011;54880;50.986;6.990;2023-04-01T02:40:59;2.30;;;0.50;;
68089;SDS011;54880;50.986;6.990;2023-04-01T02:43:25;4.67;;;0.80;;
68089;SDS011;54880;50.986;6.990;2023-04-01T02:45:51;2.40;;;0.70;;
68089;SDS011;54880;50.986;6.990;2023-04-01T02:48:16;3.30;;;0.60;;
68089;SDS011;54880;50.986;6.990;2023-04-01T02:50:42;3.73;;;0.67;;
68089;SDS011;54880;50.986;6.990;2023-04-01T02:53:07;4.22;;;0.80;;
68089;SDS011;54880;50.986;6.990;2023-04-01T02:55:33;2.97;;;0.60;;
68089;SDS011;54880;50.986;6.990;2023-04-01T02:57:58;4.23;;;1.17;;
68089;SDS011;54880;50.986;6.990;2023-04-01T03:00:24;2.87;;;0.67;;
68089;SDS011;54880;50.986;6.990;2023-04-01T03:02:49;2.70;;;0.70;;
68089;SDS011;54880;50.986;6.990;2023-04-01T03:05:14;3.95;;;0.70;;
68089;SDS011;54880;50.986;6.990;2023-04-01T03:07:40;2.60;;;0.70;;
68089;SDS011;54880;50.986;6.990;2023-04-01T03:10:06;3.60;;;0.63;;
68089;SDS011;54880;50.986;6.990;2023-04-01T03:12:31;2.80;;;0.80;;
68089;SDS011;54880;50.986;6.990;2023-04-01T03:14:56;2.60;;;0.53;;
68089;SDS011;54880;50.986;6.990;2023-04-01T03:17:22;2.67;;;0.50;;
68089;SDS011;54880;50.986;6.990;2023-04-01T03:19:47;2.20;;;0.60;;
68089;SDS011;54880;50.986;6.990;2023-04-01T03:22:13;2.07;;;0.50;;
68089;SDS011;54880;50.986;6.990;2023-04-01T03:24:38;4.00;;;1.23;;
68089;SDS011;54880;50.986;6.990;2023-04-01T03:27:03;2.27;;;0.57;;
68089;SDS011;54880;50.986;6.990;2023-04-01T03:29:29;1.80;;;0.50;;
68089;SDS011;54880;50.986;6.990;2023-04-01T03:31:54;2.27;;;0.60;;
68089;SDS011;54880;50.986;6.990;2023-04-01T03:34:23;2.20;;;0.60;;
68089;SDS011;54880;50.986;6.990;2023-04-01T03:36:48;1.73;;;0.40;;
68089;SDS011;54880;50.986;6.990;2023-04-01T03:39:13;3.07;;;0.67;;
68089;SDS011;54880;50.986;6.990;2023-04-01T03:41:40;2.50;;;0.70;;
68089;SDS011;54880;50.986;6.990;2023-04-01T03:44:05;2.50;;;0.67;;
68089;SDS011;54880;50.986;6.990;2023-04-01T03:46:31;2.53;;;0.57;;
68089;SDS011;54880;50.986;6.990;2023-04-01T03:48:57;3.88;;;0.50;;
68089;SDS011;54880;50.986;6.990;2023-04-01T03:51:22;2.40;;;0.50;;
68089;SDS011;54880;50.986;6.990;2023-04-01T03:53:48;4.00;;;0.83;;
68089;SDS011;54880;50.986;6.990;2023-04-01T03:56:13;2.63;;;0.57;;
68089;SDS011;54880;50.986;6.990;2023-04-01T03:58:39;2.50;;;0.60;;
68089;SDS011;54880;50.986;6.990;2023-04-01T04:01:13;2.75;;;0.60;;
68089;SDS011;54880;50.986;6.990;2023-04-01T04:03:39;3.38;;;0.60;;
68089;SDS011;54880;50.986;6.990;2023-04-01T04:06:04;2.97;;;0.80;;
68089;SDS011;54880;50.986;6.990;2023-04-01T04:08:30;2.30;;;0.67;;
68089;SDS011;54880;50.986;6.990;2023-04-01T04:10:55;2.70;;;0.50;;
68089;SDS011;54880;50.986;6.990;2023-04-01T04:13:21;2.60;;;0.70;;
68089;SDS011;54880;50.986;6.990;2023-04-01T04:15:53;1.85;;;0.50;;
68089;SDS011;54880;50.986;6.990;2023-04-01T04:18:18;2.40;;;0.67;;
68089;SDS011;54880;50.986;6.990;2023-04-01T04:20:44;3.63;;;0.67;;
68089;SDS011;54880;50.986;6.990;2023-04-01T04:23:12;2.58;;;0.57;;
68089;SDS011;54880;50.986;6.990;2023-04-01T04:25:37;1.63;;;0.47;;
68089;SDS011;54880;50.986;6.990;2023-04-01T04:28:03;3.33;;;0.53;;
68089;SDS011;54880;50.986;6.990;2023-04-01T04:30:28;2.73;;;0.60;;
68089;SDS011;54880;50.986;6.990;2023-04-01T04:32:53;2.87;;;0.70;;
68089;SDS011;54880;50.986;6.990;2023-04-01T04:35:19;2.00;;;0.60;;
68089;SDS011;54880;50.986;6.990;2023-04-01T04:37:45;1.67;;;0.40;;
68089;SDS011;54880;50.986;6.990;2023-04-01T04:40:10;2.57;;;0.60;;
68089;SDS011;54880;50.986;6.990;2023-04-01T04:42:36;2.07;;;0.50;;
68089;SDS011;54880;50.986;6.990;2023-04-01T04:45:07;2.53;;;0.60;;
68089;SDS011;54880;50.986;6.990;2023-04-01T04:47:34;2.20;;;0.52;;
68089;SDS011;54880;50.986;6.990;2023-04-01T04:49:59;2.53;;;0.60;;
68089;SDS011;54880;50.986;6.990;2023-04-01T04:52:25;1.87;;;0.60;;
68089;SDS011;54880;50.986;6.990;2023-04-01T04:54:50;2.93;;;0.90;;
68089;SDS011;54880;50.986;6.990;2023-04-01T04:57:16;1.73;;;0.47;;
68089;SDS011;54880;50.986;6.990;2023-04-01T04:59:48;4.27;;;0.50;;
68089;SDS011;54880;50.986;6.990;2023-04-01T05:02:21;2.15;;;0.60;;
68089;SDS011;54880;50.986;6.990;2023-04-01T05:04:47;2.53;;;0.70;;
68089;SDS011;54880;50.986;6.990;2023-04-01T05:07:12;2.00;;;0.60;;
68089;SDS011;54880;50.986;6.990;2023-04-01T05:09:37;2.27;;;0.60;;
68089;SDS011;54880;50.986;6.990;2023-04-01T05:12:04;2.53;;;0.60;;
68089;SDS011;54880;50.986;6.990;2023-04-01T05:14:45;3.60;;;0.98;;
68089;SDS011;54880;50.986;6.990;2023-04-01T05:17:11;5.40;;;0.80;;
68089;SDS011;54880;50.986;6.990;2023-04-01T05:19:37;4.17;;;0.70;;
68089;SDS011;54880;50.986;6.990;2023-04-01T05:22:02;2.28;;;0.60;;
68089;SDS011;54880;50.986;6.990;2023-04-01T05:24:30;4.40;;;0.80;;
68089;SDS011;54880;50.986;6.990;2023-04-01T05:26:55;2.00;;;0.50;;
68089;SDS011;54880;50.986;6.990;2023-04-01T05:29:23;1.83;;;0.50;;
68089;SDS011;54880;50.986;6.990;2023-04-01T05:31:54;4.70;;;0.63;;
68089;SDS011;54880;50.986;6.990;2023-04-01T05:34:20;3.97;;;0.60;;
68089;SDS011;54880;50.986;6.990;2023-04-01T05:36:45;2.63;;;0.70;;
68089;SDS011;54880;50.986;6.990;2023-04-01T05:39:10;2.20;;;0.60;;
68089;SDS011;54880;50.986;6.990;2023-04-01T05:41:36;2.55;;;0.70;;
68089;SDS011;54880;50.986;6.990;2023-04-01T05:44:02;3.00;;;0.60;;
68089;SDS011;54880;50.986;6.990;2023-04-01T05:46:39;2.97;;;0.70;;
68089;SDS011;54880;50.986;6.990;2023-04-01T05:49:13;2.70;;;0.80;;
68089;SDS011;54880;50.986;6.990;2023-04-01T05:51:39;3.10;;;0.60;;
68089;SDS011;54880;50.986;6.990;2023-04-01T05:54:05;3.33;;;0.80;;
68089;SDS011;54880;50.986;6.990;2023-04-01T05:56:30;4.03;;;1.10;;
68089;SDS011;54880;50.986;6.990;2023-04-01T05:58:56;3.30;;;1.00;;
68089;SDS011;54880;50.986;6.990;2023-04-01T06:01:22;3.97;;;0.80;;
68089;SDS011;54880;50.986;6.990;2023-04-01T06:03:48;4.03;;;0.93;;
68089;SDS011;54880;50.986;6.990;2023-04-01T06:06:14;3.20;;;0.73;;
68089;SDS011;54880;50.986;6.990;2023-04-01T06:08:40;3.70;;;0.57;;
68089;SDS011;54880;50.986;6.990;2023-04-01T06:11:18;3.30;;;0.70;;
68089;SDS011;54880;50.986;6.990;2023-04-01T06:16:39;3.63;;;0.90;;
68089;SDS011;54880;50.986;6.990;2023-04-01T06:22:15;5.03;;;1.00;;
68089;SDS011;54880;50.986;6.990;2023-04-01T06:32:46;2.95;;;0.73;;
68089;SDS011;54880;50.986;6.990;2023-04-01T06:35:17;3.57;;;0.90;;
68089;SDS011;54880;50.986;6.990;2023-04-01T06:38:07;4.50;;;1.02;;
68089;SDS011;54880;50.986;6.990;2023-04-01T06:40:57;3.70;;;0.88;;
68089;SDS011;54880;50.986;6.990;2023-04-01T06:54:38;4.00;;;1.08;;
68089;SDS011;54880;50.986;6.990;2023-04-01T06:57:14;4.20;;;0.77;;
68089;SDS011;54880;50.986;6.990;2023-04-01T06:59:44;4.43;;;1.00;;
68089;SDS011;54880;50.986;6.990;2023-04-01T07:04:55;4.55;;;1.00;;
68089;SDS011;54880;50.986;6.990;2023-04-01T07:07:29;5.13;;;1.38;;
68089;SDS011;54880;50.986;6.990;2023-04-01T07:10:02;3.75;;;0.90;;
68089;SDS011;54880;50.986;6.990;2023-04-01T07:15:40;4.57;;;1.10;;
68089;SDS011;54880;50.986;6.990;2023-04-01T07:20:36;4.38;;;1.50;;
68089;SDS011;54880;50.986;6.990;2023-04-01T07:23:04;4.97;;;1.27;;
68089;SDS011;54880;50.986;6.990;2023-04-01T07:25:38;6.70;;;1.70;;
68089;SDS011;54880;50.986;6.990;2023-04-01T07:28:29;4.53;;;1.10;;
68089;SDS011;54880;50.986;6.990;2023-04-01T07:31:10;5.20;;;2.00;;
68089;SDS011;54880;50.986;6.990;2023-04-01T07:36:39;4.93;;;1.40;;
68089;SDS011;54880;50.986;6.990;2023-04-01T07:39:12;6.32;;;1.77;;
68089;SDS011;54880;50.986;6.990;2023-04-01T07:42:05;4.20;;;1.23;;
68089;SDS011;54880;50.986;6.990;2023-04-01T07:44:39;6.45;;;1.00;;
68089;SDS011;54880;50.986;6.990;2023-04-01T07:47:16;4.85;;;1.55;;
68089;SDS011;54880;50.986;6.990;2023-04-01T07:49:52;5.05;;;1.23;;
68089;SDS011;54880;50.986;6.990;2023-04-01T07:55:00;8.60;;;1.30;;
68089;SDS011;54880;50.986;6.990;2023-04-01T07:57:43;6.70;;;1.20;;
68089;SDS011;54880;50.986;6.990;2023-04-01T08:00:17;4.78;;;1.40;;
68089;SDS011;54880;50.986;6.990;2023-04-01T08:06:09;5.90;;;1.10;;
68089;SDS011;54880;50.986;6.990;2023-04-01T08:17:05;3.97;;;1.10;;
68089;SDS011;54880;50.986;6.990;2023-04-01T08:19:46;5.40;;;1.10;;
68089;SDS011;54880;50.986;6.990;2023-04-01T08:22:26;4.67;;;1.10;;
68089;SDS011;54880;50.986;6.990;2023-04-01T08:24:54;4.03;;;1.00;;
68089;SDS011;54880;50.986;6.990;2023-04-01T08:27:31;4.40;;;0.90;;
68089;SDS011;54880;50.986;6.990;2023-04-01T08:30:01;4.53;;;1.05;;
68089;SDS011;54880;50.986;6.990;2023-04-01T08:32:37;5.95;;;1.08;;
68089;SDS011;54880;50.986;6.990;2023-04-01T08:35:18;4.40;;;1.10;;
68089;SDS011;54880;50.986;6.990;2023-04-01T08:37:46;4.10;;;1.00;;
68089;SDS011;54880;50.986;6.990;2023-04-01T08:43:09;3.55;;;0.85;;
68089;SDS011;54880;50.986;6.990;2023-04-01T08:53:59;3.45;;;1.00;;
68089;SDS011;54880;50.986;6.990;2023-04-01T08:58:59;4.90;;;1.55;;
68089;SDS011;54880;50.986;6.990;2023-04-01T09:01:34;4.00;;;0.93;;
68089;SDS011;54880;50.986;6.990;2023-04-01T09:15:26;4.25;;;0.90;;
68089;SDS011;54880;50.986;6.990;2023-04-01T09:17:36;4.90;;;1.17;;
68089;SDS011;54880;50.986;6.990;2023-04-01T09:25:06;3.83;;;1.15;;
68089;SDS011;54880;50.986;6.990;2023-04-01T09:35:38;4.00;;;1.17;;
68089;SDS011;54880;50.986;6.990;2023-04-01T09:38:16;3.97;;;1.10;;
68089;SDS011;54880;50.986;6.990;2023-04-01T09:40:55;4.10;;;1.00;;
68089;SDS011;54880;50.986;6.990;2023-04-01T09:46:25;3.70;;;1.00;;
68089;SDS011;54880;50.986;6.990;2023-04-01T10:05:22;7.55;;;1.80;;
68089;SDS011;54880;50.986;6.990;2023-04-01T10:16:17;4.73;;;1.50;;
68089;SDS011;54880;50.986;6.990;2023-04-01T10:29:22;4.40;;;1.42;;
68089;SDS011;54880;50.986;6.990;2023-04-01T10:48:25;5.03;;;1.85;;
68089;SDS011;54880;50.986;6.990;2023-04-01T10:53:54;5.78;;;1.90;;
68089;SDS011;54880;50.986;6.990;2023-04-01T10:56:51;4.95;;;1.70;;
68089;SDS011;54880;50.986;6.990;2023-04-01T11:08:40;5.32;;;1.98;;
68089;SDS011;54880;50.986;6.990;2023-04-01T11:32:23;5.40;;;2.00;;
68089;SDS011;54880;50.986;6.990;2023-04-01T11:34:55;4.90;;;1.88;;
68089;SDS011;54880;50.986;6.990;2023-04-01T11:43:01;4.93;;;1.88;;
68089;SDS011;54880;50.986;6.990;2023-04-01T11:46:22;5.65;;;1.95;;
68089;SDS011;54880;50.986;6.990;2023-04-01T11:57:12;4.82;;;1.48;;
68089;SDS011;54880;50.986;6.990;2023-04-01T12:00:02;4.68;;;1.67;;
68089;SDS011;54880;50.986;6.990;2023-04-01T12:02:47;5.65;;;1.67;;
68089;SDS011;54880;50.986;6.990;2023-04-01T12:07:55;4.20;;;1.53;;
68089;SDS011;54880;50.986;6.990;2023-04-01T12:13:02;4.32;;;1.58;;
68089;SDS011;54880;50.986;6.990;2023-04-01T12:18:18;4.03;;;1.30;;
68089;SDS011;54880;50.986;6.990;2023-04-01T12:20:57;4.70;;;1.40;;
68089;SDS011;54880;50.986;6.990;2023-04-01T12:28:45;4.43;;;1.50;;
68089;SDS011;54880;50.986;6.990;2023-04-01T12:44:08;4.53;;;1.60;;
68089;SDS011;54880;50.986;6.990;2023-04-01T13:04:54;3.90;;;1.10;;
68089;SDS011;54880;50.986;6.990;2023-04-01T13:14:54;4.43;;;1.50;;
68089;SDS011;54880;50.986;6.990;2023-04-01T13:27:56;5.30;;;1.80;;
68089;SDS011;54880;50.986;6.990;2023-04-01T13:33:13;5.53;;;1.85;;
68089;SDS011;54880;50.986;6.990;2023-04-01T13:40:56;4.80;;;1.67;;
68089;SDS011;54880;50.986;6.990;2023-04-01T13:43:31;5.10;;;2.08;;
68089;SDS011;54880;50.986;6.990;2023-04-01T14:11:39;5.50;;;2.40;;
68089;SDS011;54880;50.986;6.990;2023-04-01T14:14:14;6.50;;;2.43;;
68089;SDS011;54880;50.986;6.990;2023-04-01T14:21:58;6.18;;;2.75;;
68089;SDS011;54880;50.986;6.990;2023-04-01T14:29:42;5.72;;;2.22;;
68089;SDS011;54880;50.986;6.990;2023-04-01T14:32:34;6.63;;;2.70;;
68089;SDS011;54880;50.986;6.990;2023-04-01T14:35:16;7.63;;;2.60;;
68089;SDS011;54880;50.986;6.990;2023-04-01T14:43:04;6.40;;;2.42;;
68089;SDS011;54880;50.986;6.990;2023-04-01T14:48:25;7.23;;;3.10;;
68089;SDS011;54880;50.986;6.990;2023-04-01T14:56:50;7.00;;;2.97;;
68089;SDS011;54880;50.986;6.990;2023-04-01T15:01:51;7.17;;;3.00;;
68089;SDS011;54880;50.986;6.990;2023-04-01T15:04:33;6.90;;;3.25;;
68089;SDS011;54880;50.986;6.990;2023-04-01T15:10:01;6.78;;;3.20;;
68089;SDS011;54880;50.986;6.990;2023-04-01T15:12:36;7.40;;;3.20;;
68089;SDS011;54880;50.986;6.990;2023-04-01T15:18:07;6.90;;;3.13;;
68089;SDS011;54880;50.986;6.990;2023-04-01T15:30:57;6.50;;;2.80;;
68089;SDS011;54880;50.986;6.990;2023-04-01T15:33:32;7.35;;;2.85;;
68089;SDS011;54880;50.986;6.990;2023-04-01T15:38:49;7.65;;;3.40;;
68089;SDS011;54880;50.986;6.990;2023-04-01T15:41:17;6.70;;;3.17;;
68089;SDS011;54880;50.986;6.990;2023-04-01T15:43:45;7.18;;;3.05;;
68089;SDS011;54880;50.986;6.990;2023-04-01T15:56:19;7.07;;;3.60;;
68089;SDS011;54880;50.986;6.990;2023-04-01T16:01:38;7.72;;;3.25;;
68089;SDS011;54880;50.986;6.990;2023-04-01T16:11:45;8.55;;;3.17;;
68089;SDS011;54880;50.986;6.990;2023-04-01T16:16:47;7.00;;;3.30;;
68089;SDS011;54880;50.986;6.990;2023-04-01T16:21:58;7.80;;;3.38;;
68089;SDS011;54880;50.986;6.990;2023-04-01T16:27:14;7.23;;;3.10;;
68089;SDS011;54880;50.986;6.990;2023-04-01T16:29:56;6.88;;;3.10;;
68089;SDS011;54880;50.986;6.990;2023-04-01T16:35:20;8.13;;;3.42;;
68089;SDS011;54880;50.986;6.990;2023-04-01T16:37:57;8.32;;;3.63;;
68089;SDS011;54880;50.986;6.990;2023-04-01T16:40:38;7.13;;;3.37;;
68089;SDS011;54880;50.986;6.990;2023-04-01T16:43:10;7.05;;;2.97;;
68089;SDS011;54880;50.986;6.990;2023-04-01T16:45:39;7.13;;;3.10;;
68089;SDS011;54880;50.986;6.990;2023-04-01T16:48:12;8.80;;;3.10;;
68089;SDS011;54880;50.986;6.990;2023-04-01T16:50:59;6.82;;;2.72;;
68089;SDS011;54880;50.986;6.990;2023-04-01T16:53:40;8.40;;;3.33;;
68089;SDS011;54880;50.986;6.990;2023-04-01T16:56:08;6.97;;;3.22;;
68089;SDS011;54880;50.986;6.990;2023-04-01T16:58:36;8.75;;;3.88;;
68089;SDS011;54880;50.986;6.990;2023-04-01T17:04:14;7.00;;;3.27;;
68089;SDS011;54880;50.986;6.990;2023-04-01T17:16:59;9.25;;;4.90;;
68089;SDS011;54880;50.986;6.990;2023-04-01T17:22:19;6.80;;;3.00;;
68089;SDS011;54880;50.986;6.990;2023-04-01T17:24:52;9.48;;;3.03;;
68089;SDS011;54880;50.986;6.990;2023-04-01T17:27:39;6.43;;;2.80;;
68089;SDS011;54880;50.986;6.990;2023-04-01T17:35:19;6.70;;;2.80;;
68089;SDS011;54880;50.986;6.990;2023-04-01T17:40:44;6.53;;;3.25;;
68089;SDS011;54880;50.986;6.990;2023-04-01T17:43:33;6.93;;;2.72;;
68089;SDS011;54880;50.986;6.990;2023-04-01T17:53:28;7.20;;;2.92;;
68089;SDS011;54880;50.986;6.990;2023-04-01T18:01:15;8.63;;;3.40;;
68089;SDS011;54880;50.986;6.990;2023-04-01T18:08:42;7.17;;;3.40;;
68089;SDS011;54880;50.986;6.990;2023-04-01T18:21:41;9.33;;;4.33;;
68089;SDS011;54880;50.986;6.990;2023-04-01T18:26:43;8.18;;;3.60;;
68089;SDS011;54880;50.986;6.990;2023-04-01T18:29:14;8.80;;;4.32;;
68089;SDS011;54880;50.986;6.990;2023-04-01T18:31:45;8.88;;;4.38;;
68089;SDS011;54880;50.986;6.990;2023-04-01T18:36:58;10.32;;;4.75;;
68089;SDS011;54880;50.986;6.990;2023-04-01T18:39:33;10.77;;;4.45;;
68089;SDS011;54880;50.986;6.990;2023-04-01T18:42:19;8.70;;;4.30;;
68089;SDS011;54880;50.986;6.990;2023-04-01T18:44:50;9.15;;;4.15;;
68089;SDS011;54880;50.986;6.990;2023-04-01T18:52:23;9.82;;;5.32;;
68089;SDS011;54880;50.986;6.990;2023-04-01T18:55:17;8.82;;;4.53;;
68089;SDS011;54880;50.986;6.990;2023-04-01T18:57:49;8.48;;;4.30;;
68089;SDS011;54880;50.986;6.990;2023-04-01T19:00:25;9.73;;;4.47;;
68089;SDS011;54880;50.986;6.990;2023-04-01T19:03:01;9.25;;;4.40;;
68089;SDS011;54880;50.986;6.990;2023-04-01T19:05:35;10.00;;;4.38;;
68089;SDS011;54880;50.986;6.990;2023-04-01T19:10:57;9.23;;;4.15;;
68089;SDS011;54880;50.986;6.990;2023-04-01T19:13:32;8.03;;;3.83;;
68089;SDS011;54880;50.986;6.990;2023-04-01T19:21:16;8.25;;;3.15;;
68089;SDS011;54880;50.986;6.990;2023-04-01T19:31:29;9.80;;;4.03;;
68089;SDS011;54880;50.986;6.990;2023-04-01T19:34:02;7.78;;;3.60;;
68089;SDS011;54880;50.986;6.990;2023-04-01T19:36:42;8.70;;;4.25;;
68089;SDS011;54880;50.986;6.990;2023-04-01T19:39:27;9.33;;;4.37;;
68089;SDS011;54880;50.986;6.990;2023-04-01T19:42:15;8.90;;;4.07;;
68089;SDS011;54880;50.986;6.990;2023-04-01T19:56:18;6.65;;;2.92;;
68089;SDS011;54880;50.986;6.990;2023-04-01T19:58:59;6.70;;;3.13;;
68089;SDS011;54880;50.986;6.990;2023-04-01T20:01:34;6.82;;;3.22;;
68089;SDS011;54880;50.986;6.990;2023-04-01T20:07:04;9.67;;;3.63;;
68089;SDS011;54880;50.986;6.990;2023-04-01T20:12:21;7.68;;;3.65;;
68089;SDS011;54880;50.986;6.990;2023-04-01T20:14:56;10.13;;;4.07;;
68089;SDS011;54880;50.986;6.990;2023-04-01T20:17:32;8.23;;;3.97;;
68089;SDS011;54880;50.986;6.990;2023-04-01T20:20:15;8.50;;;3.63;;
68089;SDS011;54880;50.986;6.990;2023-04-01T20:25:25;12.18;;;4.13;;
68089;SDS011;54880;50.986;6.990;2023-04-01T20:33:21;8.90;;;4.37;;
68089;SDS011;54880;50.986;6.990;2023-04-01T20:38:49;9.20;;;4.78;;
68089;SDS011;54880;50.986;6.990;2023-04-01T20:41:31;8.88;;;4.47;;
68089;SDS011;54880;50.986;6.990;2023-04-01T20:44:09;10.73;;;5.63;;
68089;SDS011;54880;50.986;6.990;2023-04-01T20:49:16;10.93;;;5.75;;
68089;SDS011;54880;50.986;6.990;2023-04-01T20:51:46;12.80;;;6.00;;
68089;SDS011;54880;50.986;6.990;2023-04-01T20:54:23;11.32;;;5.93;;
68089;SDS011;54880;50.986;6.990;2023-04-01T20:57:06;10.98;;;5.95;;
68089;SDS011;54880;50.986;6.990;2023-04-01T21:07:54;10.98;;;5.70;;
68089;SDS011;54880;50.986;6.990;2023-04-01T21:10:36;12.65;;;5.78;;
68089;SDS011;54880;50.986;6.990;2023-04-01T21:15:55;11.38;;;6.10;;
68089;SDS011;54880;50.986;6.990;2023-04-01T21:20:49;10.67;;;5.40;;
68089;SDS011;54880;50.986;6.990;2023-04-01T22:07:12;8.32;;;3.65;;
68089;SDS011;54880;50.986;6.990;2023-04-01T22:09:39;8.77;;;4.35;;
68089;SDS011;54880;50.986;6.990;2023-04-01T22:12:17;8.50;;;3.73;;
68089;SDS011;54880;50.986;6.990;2023-04-01T22:14:47;8.15;;;3.45;;
68089;SDS011;54880;50.986;6.990;2023-04-01T22:17:16;8.80;;;3.88;;
68089;SDS011;54880;50.986;6.990;2023-04-01T22:19:47;8.38;;;4.05;;
68089;SDS011;54880;50.986;6.990;2023-04-01T22:22:26;9.63;;;3.60;;
68089;SDS011;54880;50.986;6.990;2023-04-01T22:30:47;8.68;;;3.75;;
68089;SDS011;54880;50.986;6.990;2023-04-01T22:32:52;8.18;;;4.18;;
68089;SDS011;54880;50.986;6.990;2023-04-01T22:35:32;10.25;;;3.97;;
68089;SDS011;54880;50.986;6.990;2023-04-01T22:38:02;8.50;;;4.03;;
68089;SDS011;54880;50.986;6.990;2023-04-01T22:43:15;7.93;;;3.70;;
68089;SDS011;54880;50.986;6.990;2023-04-01T22:45:46;8.77;;;4.13;;
68089;SDS011;54880;50.986;6.990;2023-04-01T22:55:44;7.83;;;3.73;;
68089;SDS011;54880;50.986;6.990;2023-04-01T22:58:14;9.25;;;4.10;;
68089;SDS011;54880;50.986;6.990;2023-04-01T23:05:43;7.97;;;3.60;;
68089;SDS011;54880;50.986;6.990;2023-04-01T23:10:56;7.93;;;3.83;;
68089;SDS011;54880;50.986;6.990;2023-04-01T23:13:24;11.13;;;5.07;;
68089;SDS011;54880;50.986;6.990;2023-04-01T23:15:52;9.20;;;4.72;;
68089;SDS011;54880;50.986;6.990;2023-04-01T23:18:20;10.07;;;4.80;;
68089;SDS011;54880;50.986;6.990;2023-04-01T23:23:20;9.03;;;4.60;;
68089;SDS011;54880;50.986;6.990;2023-04-01T23:30:59;10.30;;;5.15;;
68089;SDS011;54880;50.986;6.990;2023-04-01T23:33:29;10.50;;;5.37;;
68089;SDS011;54880;50.986;6.990;2023-04-01T23:36:11;11.93;;;5.68;;
68089;SDS011;54880;50.986;6.990;2023-04-01T23:38:38;11.00;;;5.80;;
68089;SDS011;54880;50.986;6.990;2023-04-01T23:41:04;10.73;;;5.22;;
68089;SDS011;54880;50.986;6.990;2023-04-01T23:43:31;11.80;;;5.85;;
68089;SDS011;54880;50.986;6.990;2023-04-01T23:45:57;10.63;;;5.22;;
68089;SDS011;54880;50.986;6.990;2023-04-01T23:48:29;12.38;;;5.97;;
68089;SDS011;54880;50.986;6.990;2023-04-01T23:50:56;12.27;;;5.70;;
68089;SDS011;54880;50.986;6.990;2023-04-01T23:53:23;12.43;;;5.50;;
68089;SDS011;54880;50.986;6.990;2023-04-01T23:55:49;12.07;;;5.50;;
68089;SDS011;54880;50.986;6.990;2023-04-01T23:58:22;12.27;;;5.60;;
